sensor_id;sensor_type;location;lat;lon;timestamp;P1;durP1;ratioP1;P2;durP2;ratioP2
52508;SDS011;38420;53.150;6.370;2023-04-05T00:01:22;10.05;;;5.20;;
52508;SDS011;38420;53.150;6.370;2023-04-05T00:03:50;8.45;;;4.97;;
52508;SDS011;38420;53.150;6.370;2023-04-05T00:06:22;8.90;;;4.68;;
52508;SDS011;38420;53.150;6.370;2023-04-05T00:09:02;11.93;;;5.65;;
52508;SDS011;38420;53.150;6.370;2023-04-05T00:11:29;9.85;;;5.50;;
52508;SDS011;38420;53.150;6.370;2023-04-05T00:14:00;8.70;;;5.10;;
52508;SDS011;38420;53.150;6.370;2023-04-05T00:16:27;10.90;;;5.60;;
52508;SDS011;38420;53.150;6.370;2023-04-05T00:18:54;9.90;;;5.20;;
52508;SDS011;38420;53.150;6.370;2023-04-05T00:21:21;10.35;;;4.93;;
52508;SDS011;38420;53.150;6.370;2023-04-05T00:23:52;9.32;;;5.07;;
52508;SDS011;38420;53.150;6.370;2023-04-05T00:26:20;8.82;;;4.90;;
52508;SDS011;38420;53.150;6.370;2023-04-05T00:28:49;11.27;;;5.72;;
52508;SDS011;38420;53.150;6.370;2023-04-05T00:31:15;10.35;;;5.35;;
52508;SDS011;38420;53.150;6.370;2023-04-05T00:33:41;9.23;;;5.53;;
52508;SDS011;38420;53.150;6.370;2023-04-05T00:36:11;10.63;;;5.38;;
52508;SDS011;38420;53.150;6.370;2023-04-05T00:38:37;11.32;;;6.43;;
52508;SDS011;38420;53.150;6.370;2023-04-05T00:41:04;10.85;;;5.38;;
52508;SDS011;38420;53.150;6.370;2023-04-05T00:43:30;10.82;;;5.35;;
52508;SDS011;38420;53.150;6.370;2023-04-05T00:45:56;12.98;;;5.57;;
52508;SDS011;38420;53.150;6.370;2023-04-05T00:48:22;12.98;;;4.95;;
52508;SDS011;38420;53.150;6.370;2023-04-05T00:50:48;9.82;;;5.68;;
52508;SDS011;38420;53.150;6.370;2023-04-05T00:53:17;12.40;;;6.78;;
52508;SDS011;38420;53.150;6.370;2023-04-05T00:55:47;9.77;;;5.80;;
52508;SDS011;38420;53.150;6.370;2023-04-05T00:58:14;9.57;;;5.70;;
52508;SDS011;38420;53.150;6.370;2023-04-05T01:00:53;11.35;;;5.53;;
52508;SDS011;38420;53.150;6.370;2023-04-05T01:03:30;15.65;;;6.00;;
52508;SDS011;38420;53.150;6.370;2023-04-05T01:06:03;13.93;;;5.50;;
52508;SDS011;38420;53.150;6.370;2023-04-05T01:11:13;10.07;;;6.20;;
52508;SDS011;38420;53.150;6.370;2023-04-05T01:13:40;11.25;;;5.38;;
52508;SDS011;38420;53.150;6.370;2023-04-05T01:16:08;10.00;;;6.05;;
52508;SDS011;38420;53.150;6.370;2023-04-05T01:18:35;11.25;;;5.00;;
52508;SDS011;38420;53.150;6.370;2023-04-05T01:21:08;11.75;;;5.47;;
52508;SDS011;38420;53.150;6.370;2023-04-05T01:24:22;12.60;;;5.40;;
52508;SDS011;38420;53.150;6.370;2023-04-05T01:27:13;11.10;;;5.07;;
52508;SDS011;38420;53.150;6.370;2023-04-05T01:29:44;12.95;;;6.07;;
52508;SDS011;38420;53.150;6.370;2023-04-05T01:37:42;12.95;;;5.82;;
52508;SDS011;38420;53.150;6.370;2023-04-05T01:40:11;11.13;;;5.85;;
52508;SDS011;38420;53.150;6.370;2023-04-05T01:42:37;14.02;;;6.00;;
52508;SDS011;38420;53.150;6.370;2023-04-05T01:45:03;11.27;;;5.63;;
52508;SDS011;38420;53.150;6.370;2023-04-05T01:47:29;12.30;;;6.43;;
52508;SDS011;38420;53.150;6.370;2023-04-05T01:49:54;13.05;;;6.95;;
52508;SDS011;38420;53.150;6.370;2023-04-05T01:52:20;12.57;;;6.53;;
52508;SDS011;38420;53.150;6.370;2023-04-05T01:54:45;10.85;;;6.22;;
52508;SDS011;38420;53.150;6.370;2023-04-05T01:57:11;12.20;;;6.30;;
52508;SDS011;38420;53.150;6.370;2023-04-05T01:59:37;12.68;;;6.45;;
52508;SDS011;38420;53.150;6.370;2023-04-05T02:02:02;16.38;;;8.27;;
52508;SDS011;38420;53.150;6.370;2023-04-05T02:04:28;11.60;;;6.65;;
52508;SDS011;38420;53.150;6.370;2023-04-05T02:06:54;12.23;;;5.97;;
52508;SDS011;38420;53.150;6.370;2023-04-05T02:09:19;12.45;;;6.22;;
52508;SDS011;38420;53.150;6.370;2023-04-05T02:11:45;11.77;;;6.30;;
52508;SDS011;38420;53.150;6.370;2023-04-05T02:14:11;13.52;;;5.88;;
52508;SDS011;38420;53.150;6.370;2023-04-05T02:16:37;13.30;;;6.63;;
52508;SDS011;38420;53.150;6.370;2023-04-05T02:19:02;15.77;;;6.50;;
52508;SDS011;38420;53.150;6.370;2023-04-05T02:21:29;14.18;;;6.43;;
52508;SDS011;38420;53.150;6.370;2023-04-05T02:23:55;12.75;;;6.80;;
52508;SDS011;38420;53.150;6.370;2023-04-05T02:26:21;13.57;;;6.82;;
52508;SDS011;38420;53.150;6.370;2023-04-05T02:28:47;12.68;;;6.63;;
52508;SDS011;38420;53.150;6.370;2023-04-05T02:31:13;17.40;;;7.78;;
52508;SDS011;38420;53.150;6.370;2023-04-05T02:33:39;15.85;;;7.28;;
52508;SDS011;38420;53.150;6.370;2023-04-05T02:36:05;13.65;;;7.00;;
52508;SDS011;38420;53.150;6.370;2023-04-05T02:38:32;14.05;;;7.63;;
52508;SDS011;38420;53.150;6.370;2023-04-05T02:40:58;13.55;;;7.70;;
52508;SDS011;38420;53.150;6.370;2023-04-05T02:43:23;13.85;;;7.10;;
52508;SDS011;38420;53.150;6.370;2023-04-05T02:45:50;12.85;;;7.00;;
52508;SDS011;38420;53.150;6.370;2023-04-05T02:48:15;16.02;;;7.10;;
52508;SDS011;38420;53.150;6.370;2023-04-05T02:50:41;13.68;;;7.07;;
52508;SDS011;38420;53.150;6.370;2023-04-05T02:53:15;12.90;;;6.82;;
52508;SDS011;38420;53.150;6.370;2023-04-05T02:55:41;14.50;;;8.07;;
52508;SDS011;38420;53.150;6.370;2023-04-05T02:58:07;14.38;;;7.00;;
52508;SDS011;38420;53.150;6.370;2023-04-05T03:00:32;13.45;;;6.90;;
52508;SDS011;38420;53.150;6.370;2023-04-05T03:02:58;14.93;;;6.90;;
52508;SDS011;38420;53.150;6.370;2023-04-05T03:05:24;13.02;;;6.53;;
52508;SDS011;38420;53.150;6.370;2023-04-05T03:07:50;12.95;;;7.60;;
52508;SDS011;38420;53.150;6.370;2023-04-05T03:10:16;16.05;;;7.70;;
52508;SDS011;38420;53.150;6.370;2023-04-05T03:12:43;15.13;;;7.85;;
52508;SDS011;38420;53.150;6.370;2023-04-05T03:15:10;14.25;;;7.53;;
52508;SDS011;38420;53.150;6.370;2023-04-05T03:17:35;14.52;;;7.00;;
52508;SDS011;38420;53.150;6.370;2023-04-05T03:20:02;16.75;;;7.05;;
52508;SDS011;38420;53.150;6.370;2023-04-05T03:22:30;14.95;;;6.97;;
52508;SDS011;38420;53.150;6.370;2023-04-05T03:24:57;15.20;;;6.97;;
52508;SDS011;38420;53.150;6.370;2023-04-05T03:27:23;14.98;;;7.95;;
52508;SDS011;38420;53.150;6.370;2023-04-05T03:29:50;11.45;;;7.43;;
52508;SDS011;38420;53.150;6.370;2023-04-05T03:32:15;15.50;;;8.02;;
52508;SDS011;38420;53.150;6.370;2023-04-05T03:34:41;16.73;;;8.30;;
52508;SDS011;38420;53.150;6.370;2023-04-05T03:37:07;15.07;;;7.35;;
52508;SDS011;38420;53.150;6.370;2023-04-05T03:39:33;14.23;;;7.28;;
52508;SDS011;38420;53.150;6.370;2023-04-05T03:41:59;12.55;;;8.00;;
52508;SDS011;38420;53.150;6.370;2023-04-05T03:44:25;14.02;;;8.27;;
52508;SDS011;38420;53.150;6.370;2023-04-05T03:46:51;17.52;;;8.60;;
52508;SDS011;38420;53.150;6.370;2023-04-05T03:49:17;18.00;;;9.23;;
52508;SDS011;38420;53.150;6.370;2023-04-05T03:51:43;19.38;;;9.88;;
52508;SDS011;38420;53.150;6.370;2023-04-05T03:54:10;18.90;;;9.85;;
52508;SDS011;38420;53.150;6.370;2023-04-05T03:56:36;15.77;;;8.60;;
52508;SDS011;38420;53.150;6.370;2023-04-05T03:59:02;17.85;;;9.15;;
52508;SDS011;38420;53.150;6.370;2023-04-05T04:01:28;18.63;;;9.48;;
52508;SDS011;38420;53.150;6.370;2023-04-05T04:03:54;14.77;;;8.10;;
52508;SDS011;38420;53.150;6.370;2023-04-05T04:06:20;17.60;;;8.27;;
52508;SDS011;38420;53.150;6.370;2023-04-05T04:08:45;18.77;;;9.30;;
52508;SDS011;38420;53.150;6.370;2023-04-05T04:11:11;15.35;;;9.05;;
52508;SDS011;38420;53.150;6.370;2023-04-05T04:13:37;16.05;;;10.32;;
52508;SDS011;38420;53.150;6.370;2023-04-05T04:16:02;14.40;;;8.65;;
52508;SDS011;38420;53.150;6.370;2023-04-05T04:18:28;17.15;;;9.68;;
52508;SDS011;38420;53.150;6.370;2023-04-05T04:20:54;17.15;;;9.60;;
52508;SDS011;38420;53.150;6.370;2023-04-05T04:23:20;20.13;;;10.52;;
52508;SDS011;38420;53.150;6.370;2023-04-05T04:25:48;18.75;;;10.20;;
52508;SDS011;38420;53.150;6.370;2023-04-05T04:28:18;18.08;;;9.20;;
52508;SDS011;38420;53.150;6.370;2023-04-05T04:30:45;15.35;;;9.77;;
52508;SDS011;38420;53.150;6.370;2023-04-05T04:33:10;20.10;;;8.43;;
52508;SDS011;38420;53.150;6.370;2023-04-05T04:35:36;19.17;;;8.90;;
52508;SDS011;38420;53.150;6.370;2023-04-05T04:38:03;18.73;;;8.40;;
52508;SDS011;38420;53.150;6.370;2023-04-05T04:40:30;18.25;;;8.68;;
52508;SDS011;38420;53.150;6.370;2023-04-05T04:43:02;15.07;;;8.93;;
52508;SDS011;38420;53.150;6.370;2023-04-05T04:45:34;14.93;;;8.88;;
52508;SDS011;38420;53.150;6.370;2023-04-05T04:48:01;16.20;;;8.23;;
52508;SDS011;38420;53.150;6.370;2023-04-05T04:50:29;16.88;;;8.02;;
52508;SDS011;38420;53.150;6.370;2023-04-05T04:52:57;16.10;;;8.30;;
52508;SDS011;38420;53.150;6.370;2023-04-05T04:55:24;16.52;;;8.85;;
52508;SDS011;38420;53.150;6.370;2023-04-05T04:57:53;15.98;;;8.57;;
52508;SDS011;38420;53.150;6.370;2023-04-05T05:00:20;15.05;;;8.52;;
52508;SDS011;38420;53.150;6.370;2023-04-05T05:02:47;21.30;;;8.88;;
52508;SDS011;38420;53.150;6.370;2023-04-05T05:05:12;15.63;;;9.15;;
52508;SDS011;38420;53.150;6.370;2023-04-05T05:07:39;13.68;;;8.15;;
52508;SDS011;38420;53.150;6.370;2023-04-05T05:10:10;19.10;;;9.07;;
52508;SDS011;38420;53.150;6.370;2023-04-05T05:12:40;16.48;;;8.93;;
52508;SDS011;38420;53.150;6.370;2023-04-05T05:15:06;16.55;;;8.60;;
52508;SDS011;38420;53.150;6.370;2023-04-05T05:17:32;15.77;;;8.82;;
52508;SDS011;38420;53.150;6.370;2023-04-05T05:19:59;15.80;;;8.23;;
52508;SDS011;38420;53.150;6.370;2023-04-05T05:22:25;23.98;;;9.98;;
52508;SDS011;38420;53.150;6.370;2023-04-05T05:24:51;15.60;;;9.05;;
52508;SDS011;38420;53.150;6.370;2023-04-05T05:27:17;17.85;;;9.77;;
52508;SDS011;38420;53.150;6.370;2023-04-05T05:29:43;19.80;;;9.55;;
52508;SDS011;38420;53.150;6.370;2023-04-05T05:32:09;17.10;;;9.55;;
52508;SDS011;38420;53.150;6.370;2023-04-05T05:34:39;19.55;;;9.60;;
52508;SDS011;38420;53.150;6.370;2023-04-05T05:37:06;26.42;;;11.63;;
52508;SDS011;38420;53.150;6.370;2023-04-05T05:39:33;21.60;;;10.80;;
52508;SDS011;38420;53.150;6.370;2023-04-05T05:42:00;22.92;;;11.73;;
52508;SDS011;38420;53.150;6.370;2023-04-05T05:44:27;19.73;;;11.77;;
52508;SDS011;38420;53.150;6.370;2023-04-05T05:46:53;18.13;;;9.98;;
52508;SDS011;38420;53.150;6.370;2023-04-05T05:49:19;22.48;;;11.38;;
52508;SDS011;38420;53.150;6.370;2023-04-05T05:51:44;24.08;;;12.13;;
52508;SDS011;38420;53.150;6.370;2023-04-05T05:54:11;28.88;;;13.68;;
52508;SDS011;38420;53.150;6.370;2023-04-05T05:56:37;24.17;;;12.13;;
52508;SDS011;38420;53.150;6.370;2023-04-05T05:59:02;22.13;;;11.55;;
52508;SDS011;38420;53.150;6.370;2023-04-05T06:01:28;23.45;;;11.68;;
52508;SDS011;38420;53.150;6.370;2023-04-05T06:03:54;25.30;;;12.90;;
52508;SDS011;38420;53.150;6.370;2023-04-05T06:06:19;26.90;;;12.98;;
52508;SDS011;38420;53.150;6.370;2023-04-05T06:08:46;28.13;;;13.82;;
52508;SDS011;38420;53.150;6.370;2023-04-05T06:11:17;29.17;;;12.80;;
52508;SDS011;38420;53.150;6.370;2023-04-05T06:13:44;23.08;;;13.10;;
52508;SDS011;38420;53.150;6.370;2023-04-05T06:16:10;21.85;;;12.80;;
52508;SDS011;38420;53.150;6.370;2023-04-05T06:18:35;23.48;;;12.85;;
52508;SDS011;38420;53.150;6.370;2023-04-05T06:21:01;26.35;;;13.35;;
52508;SDS011;38420;53.150;6.370;2023-04-05T06:23:27;29.48;;;14.63;;
52508;SDS011;38420;53.150;6.370;2023-04-05T06:25:52;24.67;;;13.55;;
52508;SDS011;38420;53.150;6.370;2023-04-05T06:28:18;24.95;;;13.20;;
52508;SDS011;38420;53.150;6.370;2023-04-05T06:30:44;25.02;;;13.32;;
52508;SDS011;38420;53.150;6.370;2023-04-05T06:33:09;27.05;;;14.38;;
52508;SDS011;38420;53.150;6.370;2023-04-05T06:35:35;27.80;;;13.85;;
52508;SDS011;38420;53.150;6.370;2023-04-05T06:38:00;29.02;;;15.10;;
52508;SDS011;38420;53.150;6.370;2023-04-05T06:40:26;25.65;;;14.85;;
52508;SDS011;38420;53.150;6.370;2023-04-05T06:42:52;26.85;;;14.65;;
52508;SDS011;38420;53.150;6.370;2023-04-05T06:45:18;29.33;;;13.85;;
52508;SDS011;38420;53.150;6.370;2023-04-05T06:47:44;23.33;;;13.00;;
52508;SDS011;38420;53.150;6.370;2023-04-05T06:50:10;28.85;;;13.98;;
52508;SDS011;38420;53.150;6.370;2023-04-05T06:52:36;25.80;;;14.10;;
52508;SDS011;38420;53.150;6.370;2023-04-05T06:55:02;30.65;;;13.52;;
52508;SDS011;38420;53.150;6.370;2023-04-05T06:57:28;26.23;;;13.93;;
52508;SDS011;38420;53.150;6.370;2023-04-05T06:59:54;23.92;;;13.57;;
52508;SDS011;38420;53.150;6.370;2023-04-05T07:02:20;25.80;;;14.60;;
52508;SDS011;38420;53.150;6.370;2023-04-05T07:04:46;20.75;;;13.40;;
52508;SDS011;38420;53.150;6.370;2023-04-05T07:07:12;21.85;;;13.45;;
52508;SDS011;38420;53.150;6.370;2023-04-05T07:09:38;23.17;;;13.23;;
52508;SDS011;38420;53.150;6.370;2023-04-05T07:12:05;23.42;;;13.65;;
52508;SDS011;38420;53.150;6.370;2023-04-05T07:14:32;21.75;;;13.48;;
52508;SDS011;38420;53.150;6.370;2023-04-05T07:16:59;28.98;;;13.27;;
52508;SDS011;38420;53.150;6.370;2023-04-05T07:19:25;21.83;;;12.68;;
52508;SDS011;38420;53.150;6.370;2023-04-05T07:21:50;19.90;;;12.70;;
52508;SDS011;38420;53.150;6.370;2023-04-05T07:24:17;20.75;;;12.60;;
52508;SDS011;38420;53.150;6.370;2023-04-05T07:26:43;21.88;;;12.77;;
52508;SDS011;38420;53.150;6.370;2023-04-05T07:29:09;22.30;;;12.68;;
52508;SDS011;38420;53.150;6.370;2023-04-05T07:31:35;22.77;;;12.02;;
52508;SDS011;38420;53.150;6.370;2023-04-05T07:34:02;19.33;;;12.32;;
52508;SDS011;38420;53.150;6.370;2023-04-05T07:36:27;21.95;;;13.20;;
52508;SDS011;38420;53.150;6.370;2023-04-05T07:38:55;22.15;;;11.77;;
52508;SDS011;38420;53.150;6.370;2023-04-05T07:41:21;18.13;;;11.70;;
52508;SDS011;38420;53.150;6.370;2023-04-05T07:43:47;23.63;;;12.45;;
52508;SDS011;38420;53.150;6.370;2023-04-05T07:46:13;18.85;;;11.60;;
52508;SDS011;38420;53.150;6.370;2023-04-05T07:48:39;21.13;;;11.95;;
52508;SDS011;38420;53.150;6.370;2023-04-05T07:51:05;17.77;;;10.90;;
52508;SDS011;38420;53.150;6.370;2023-04-05T07:53:33;18.85;;;11.52;;
52508;SDS011;38420;53.150;6.370;2023-04-05T07:56:02;17.73;;;10.68;;
52508;SDS011;38420;53.150;6.370;2023-04-05T07:58:33;16.08;;;10.05;;
52508;SDS011;38420;53.150;6.370;2023-04-05T08:01:02;19.80;;;10.75;;
52508;SDS011;38420;53.150;6.370;2023-04-05T08:03:29;18.15;;;10.50;;
52508;SDS011;38420;53.150;6.370;2023-04-05T08:05:55;17.75;;;10.23;;
52508;SDS011;38420;53.150;6.370;2023-04-05T08:08:22;15.55;;;10.27;;
52508;SDS011;38420;53.150;6.370;2023-04-05T08:10:49;15.20;;;9.25;;
52508;SDS011;38420;53.150;6.370;2023-04-05T08:13:15;15.80;;;8.30;;
52508;SDS011;38420;53.150;6.370;2023-04-05T08:15:40;16.60;;;11.13;;
52508;SDS011;38420;53.150;6.370;2023-04-05T08:18:06;16.80;;;9.43;;
52508;SDS011;38420;53.150;6.370;2023-04-05T08:20:32;14.15;;;9.10;;
52508;SDS011;38420;53.150;6.370;2023-04-05T08:23:03;14.38;;;8.35;;
52508;SDS011;38420;53.150;6.370;2023-04-05T08:25:29;15.40;;;8.60;;
52508;SDS011;38420;53.150;6.370;2023-04-05T08:27:55;9.73;;;5.47;;
52508;SDS011;38420;53.150;6.370;2023-04-05T08:30:20;8.27;;;4.93;;
52508;SDS011;38420;53.150;6.370;2023-04-05T08:32:47;7.93;;;4.80;;
52508;SDS011;38420;53.150;6.370;2023-04-05T08:35:13;7.55;;;5.53;;
52508;SDS011;38420;53.150;6.370;2023-04-05T08:37:39;7.75;;;5.13;;
52508;SDS011;38420;53.150;6.370;2023-04-05T08:40:05;8.00;;;4.80;;
52508;SDS011;38420;53.150;6.370;2023-04-05T08:42:39;7.18;;;4.70;;
52508;SDS011;38420;53.150;6.370;2023-04-05T08:45:10;7.47;;;3.90;;
52508;SDS011;38420;53.150;6.370;2023-04-05T08:47:38;8.80;;;5.13;;
52508;SDS011;38420;53.150;6.370;2023-04-05T08:50:05;6.78;;;4.32;;
52508;SDS011;38420;53.150;6.370;2023-04-05T08:52:34;7.18;;;4.15;;
52508;SDS011;38420;53.150;6.370;2023-04-05T08:55:03;8.32;;;4.25;;
52508;SDS011;38420;53.150;6.370;2023-04-05T08:57:32;11.30;;;9.43;;
52508;SDS011;38420;53.150;6.370;2023-04-05T09:00:03;8.13;;;5.95;;
52508;SDS011;38420;53.150;6.370;2023-04-05T09:02:33;9.68;;;8.15;;
52508;SDS011;38420;53.150;6.370;2023-04-05T09:05:01;13.02;;;8.15;;
52508;SDS011;38420;53.150;6.370;2023-04-05T09:07:28;9.77;;;7.15;;
52508;SDS011;38420;53.150;6.370;2023-04-05T09:09:55;8.38;;;6.90;;
52508;SDS011;38420;53.150;6.370;2023-04-05T09:12:23;9.70;;;7.45;;
52508;SDS011;38420;53.150;6.370;2023-04-05T09:14:50;8.75;;;7.03;;
52508;SDS011;38420;53.150;6.370;2023-04-05T09:17:16;9.88;;;7.30;;
52508;SDS011;38420;53.150;6.370;2023-04-05T09:19:43;9.75;;;7.03;;
52508;SDS011;38420;53.150;6.370;2023-04-05T09:22:09;10.45;;;6.88;;
52508;SDS011;38420;53.150;6.370;2023-04-05T09:24:39;8.45;;;6.70;;
52508;SDS011;38420;53.150;6.370;2023-04-05T09:27:12;8.02;;;6.45;;
52508;SDS011;38420;53.150;6.370;2023-04-05T09:29:40;10.30;;;6.57;;
52508;SDS011;38420;53.150;6.370;2023-04-05T09:32:08;11.45;;;7.10;;
52508;SDS011;38420;53.150;6.370;2023-04-05T09:34:35;13.10;;;6.43;;
52508;SDS011;38420;53.150;6.370;2023-04-05T09:37:02;8.30;;;6.25;;
52508;SDS011;38420;53.150;6.370;2023-04-05T09:39:37;11.10;;;7.68;;
52508;SDS011;38420;53.150;6.370;2023-04-05T09:42:06;10.35;;;7.00;;
52508;SDS011;38420;53.150;6.370;2023-04-05T09:47:26;12.35;;;7.40;;
52508;SDS011;38420;53.150;6.370;2023-04-05T09:52:23;15.30;;;8.07;;
52508;SDS011;38420;53.150;6.370;2023-04-05T09:54:54;11.82;;;7.53;;
52508;SDS011;38420;53.150;6.370;2023-04-05T09:57:21;10.82;;;7.43;;
52508;SDS011;38420;53.150;6.370;2023-04-05T09:59:48;10.05;;;7.18;;
52508;SDS011;38420;53.150;6.370;2023-04-05T10:02:14;11.32;;;7.03;;
52508;SDS011;38420;53.150;6.370;2023-04-05T10:04:40;9.00;;;6.90;;
52508;SDS011;38420;53.150;6.370;2023-04-05T10:07:08;10.55;;;6.07;;
52508;SDS011;38420;53.150;6.370;2023-04-05T10:09:35;10.75;;;7.32;;
52508;SDS011;38420;53.150;6.370;2023-04-05T10:12:01;9.85;;;6.65;;
52508;SDS011;38420;53.150;6.370;2023-04-05T10:14:28;7.70;;;6.80;;
52508;SDS011;38420;53.150;6.370;2023-04-05T10:19:30;12.23;;;7.65;;
52508;SDS011;38420;53.150;6.370;2023-04-05T10:22:23;9.13;;;6.70;;
52508;SDS011;38420;53.150;6.370;2023-04-05T10:25:07;14.80;;;7.72;;
52508;SDS011;38420;53.150;6.370;2023-04-05T10:27:46;10.52;;;7.13;;
52508;SDS011;38420;53.150;6.370;2023-04-05T10:30:12;10.35;;;7.85;;
52508;SDS011;38420;53.150;6.370;2023-04-05T10:32:51;12.25;;;5.90;;
52508;SDS011;38420;53.150;6.370;2023-04-05T10:35:42;11.82;;;5.55;;
52508;SDS011;38420;53.150;6.370;2023-04-05T10:38:26;9.48;;;5.13;;
52508;SDS011;38420;53.150;6.370;2023-04-05T10:40:53;7.65;;;5.07;;
52508;SDS011;38420;53.150;6.370;2023-04-05T10:43:37;9.10;;;6.10;;
52508;SDS011;38420;53.150;6.370;2023-04-05T10:46:05;7.80;;;5.70;;
52508;SDS011;38420;53.150;6.370;2023-04-05T10:51:10;10.93;;;5.85;;
52508;SDS011;38420;53.150;6.370;2023-04-05T10:53:37;12.95;;;6.32;;
52508;SDS011;38420;53.150;6.370;2023-04-05T10:56:04;10.30;;;6.13;;
52508;SDS011;38420;53.150;6.370;2023-04-05T10:58:31;11.55;;;5.38;;
52508;SDS011;38420;53.150;6.370;2023-04-05T11:00:58;7.65;;;5.28;;
52508;SDS011;38420;53.150;6.370;2023-04-05T11:06:22;8.68;;;6.15;;
52508;SDS011;38420;53.150;6.370;2023-04-05T11:08:55;9.38;;;5.70;;
52508;SDS011;38420;53.150;6.370;2023-04-05T11:11:25;9.50;;;5.85;;
52508;SDS011;38420;53.150;6.370;2023-04-05T11:13:52;10.30;;;6.57;;
52508;SDS011;38420;53.150;6.370;2023-04-05T11:16:19;9.15;;;5.55;;
52508;SDS011;38420;53.150;6.370;2023-04-05T11:18:46;10.48;;;5.90;;
52508;SDS011;38420;53.150;6.370;2023-04-05T11:21:18;10.13;;;5.80;;
52508;SDS011;38420;53.150;6.370;2023-04-05T11:23:59;12.75;;;5.78;;
52508;SDS011;38420;53.150;6.370;2023-04-05T11:29:03;9.52;;;5.70;;
52508;SDS011;38420;53.150;6.370;2023-04-05T11:31:29;9.95;;;5.50;;
52508;SDS011;38420;53.150;6.370;2023-04-05T11:33:58;9.10;;;5.00;;
52508;SDS011;38420;53.150;6.370;2023-04-05T11:41:59;9.88;;;5.18;;
52508;SDS011;38420;53.150;6.370;2023-04-05T11:44:38;11.18;;;6.15;;
52508;SDS011;38420;53.150;6.370;2023-04-05T11:47:05;10.68;;;5.72;;
52508;SDS011;38420;53.150;6.370;2023-04-05T11:49:32;9.20;;;6.00;;
52508;SDS011;38420;53.150;6.370;2023-04-05T11:52:08;8.95;;;5.68;;
52508;SDS011;38420;53.150;6.370;2023-04-05T11:54:35;8.45;;;5.70;;
52508;SDS011;38420;53.150;6.370;2023-04-05T11:57:00;10.27;;;5.13;;
52508;SDS011;38420;53.150;6.370;2023-04-05T11:59:33;8.23;;;5.72;;
52508;SDS011;38420;53.150;6.370;2023-04-05T12:02:00;7.68;;;5.22;;
52508;SDS011;38420;53.150;6.370;2023-04-05T12:04:28;10.05;;;5.10;;
52508;SDS011;38420;53.150;6.370;2023-04-05T12:07:10;9.10;;;5.28;;
52508;SDS011;38420;53.150;6.370;2023-04-05T12:12:26;10.07;;;5.50;;
52508;SDS011;38420;53.150;6.370;2023-04-05T12:15:00;9.73;;;6.15;;
52508;SDS011;38420;53.150;6.370;2023-04-05T12:17:39;8.52;;;5.35;;
52508;SDS011;38420;53.150;6.370;2023-04-05T12:20:14;6.80;;;5.32;;
52508;SDS011;38420;53.150;6.370;2023-04-05T12:22:44;10.50;;;5.15;;
52508;SDS011;38420;53.150;6.370;2023-04-05T12:25:12;10.23;;;6.15;;
52508;SDS011;38420;53.150;6.370;2023-04-05T12:27:39;10.38;;;6.25;;
52508;SDS011;38420;53.150;6.370;2023-04-05T12:30:06;9.07;;;5.90;;
52508;SDS011;38420;53.150;6.370;2023-04-05T12:32:47;8.20;;;5.53;;
52508;SDS011;38420;53.150;6.370;2023-04-05T12:35:21;9.40;;;5.47;;
52508;SDS011;38420;53.150;6.370;2023-04-05T12:37:51;7.57;;;5.15;;
52508;SDS011;38420;53.150;6.370;2023-04-05T12:40:20;8.50;;;5.20;;
52508;SDS011;38420;53.150;6.370;2023-04-05T12:42:47;7.55;;;5.40;;
52508;SDS011;38420;53.150;6.370;2023-04-05T12:45:12;7.60;;;5.70;;
52508;SDS011;38420;53.150;6.370;2023-04-05T12:47:51;7.90;;;5.70;;
52508;SDS011;38420;53.150;6.370;2023-04-05T12:50:24;8.00;;;5.15;;
52508;SDS011;38420;53.150;6.370;2023-04-05T12:52:54;11.25;;;5.80;;
52508;SDS011;38420;53.150;6.370;2023-04-05T12:55:24;7.85;;;5.38;;
52508;SDS011;38420;53.150;6.370;2023-04-05T12:57:51;11.60;;;6.15;;
52508;SDS011;38420;53.150;6.370;2023-04-05T13:00:18;8.60;;;5.10;;
52508;SDS011;38420;53.150;6.370;2023-04-05T13:02:48;7.55;;;5.15;;
52508;SDS011;38420;53.150;6.370;2023-04-05T13:05:17;8.20;;;4.85;;
52508;SDS011;38420;53.150;6.370;2023-04-05T13:07:42;12.30;;;6.03;;
52508;SDS011;38420;53.150;6.370;2023-04-05T13:10:08;6.93;;;4.60;;
52508;SDS011;38420;53.150;6.370;2023-04-05T13:12:34;7.47;;;4.82;;
52508;SDS011;38420;53.150;6.370;2023-04-05T13:15:00;8.90;;;5.45;;
52508;SDS011;38420;53.150;6.370;2023-04-05T13:17:25;9.27;;;5.68;;
52508;SDS011;38420;53.150;6.370;2023-04-05T13:19:51;8.07;;;5.53;;
52508;SDS011;38420;53.150;6.370;2023-04-05T13:22:16;7.68;;;5.05;;
52508;SDS011;38420;53.150;6.370;2023-04-05T13:24:42;8.60;;;5.70;;
52508;SDS011;38420;53.150;6.370;2023-04-05T13:27:07;7.07;;;4.90;;
52508;SDS011;38420;53.150;6.370;2023-04-05T13:29:33;9.05;;;5.28;;
52508;SDS011;38420;53.150;6.370;2023-04-05T13:31:58;8.07;;;5.43;;
52508;SDS011;38420;53.150;6.370;2023-04-05T13:34:24;9.45;;;5.00;;
52508;SDS011;38420;53.150;6.370;2023-04-05T13:36:50;9.05;;;4.93;;
52508;SDS011;38420;53.150;6.370;2023-04-05T13:39:15;8.57;;;5.22;;
52508;SDS011;38420;53.150;6.370;2023-04-05T13:41:41;7.15;;;4.55;;
52508;SDS011;38420;53.150;6.370;2023-04-05T13:44:06;7.57;;;4.88;;
52508;SDS011;38420;53.150;6.370;2023-04-05T13:46:32;7.97;;;5.15;;
52508;SDS011;38420;53.150;6.370;2023-04-05T13:48:58;9.90;;;5.47;;
52508;SDS011;38420;53.150;6.370;2023-04-05T13:51:23;10.02;;;5.60;;
52508;SDS011;38420;53.150;6.370;2023-04-05T13:53:49;10.43;;;4.97;;
52508;SDS011;38420;53.150;6.370;2023-04-05T13:56:15;8.63;;;5.40;;
52508;SDS011;38420;53.150;6.370;2023-04-05T13:58:40;12.20;;;6.25;;
52508;SDS011;38420;53.150;6.370;2023-04-05T14:01:06;5.82;;;4.45;;
52508;SDS011;38420;53.150;6.370;2023-04-05T14:03:31;7.85;;;5.03;;
52508;SDS011;38420;53.150;6.370;2023-04-05T14:05:57;10.07;;;4.38;;
52508;SDS011;38420;53.150;6.370;2023-04-05T14:08:22;8.27;;;5.20;;
52508;SDS011;38420;53.150;6.370;2023-04-05T14:10:48;6.70;;;4.50;;
52508;SDS011;38420;53.150;6.370;2023-04-05T14:13:14;14.88;;;5.00;;
52508;SDS011;38420;53.150;6.370;2023-04-05T14:15:41;7.25;;;4.75;;
52508;SDS011;38420;53.150;6.370;2023-04-05T14:18:07;7.00;;;4.50;;
52508;SDS011;38420;53.150;6.370;2023-04-05T14:20:33;8.00;;;4.72;;
52508;SDS011;38420;53.150;6.370;2023-04-05T14:22:58;7.60;;;4.55;;
52508;SDS011;38420;53.150;6.370;2023-04-05T14:25:25;7.20;;;4.18;;
52508;SDS011;38420;53.150;6.370;2023-04-05T14:27:50;8.50;;;4.57;;
52508;SDS011;38420;53.150;6.370;2023-04-05T14:30:16;7.53;;;5.25;;
52508;SDS011;38420;53.150;6.370;2023-04-05T14:32:42;7.22;;;4.75;;
52508;SDS011;38420;53.150;6.370;2023-04-05T14:35:09;8.25;;;4.47;;
52508;SDS011;38420;53.150;6.370;2023-04-05T14:37:34;10.13;;;5.25;;
52508;SDS011;38420;53.150;6.370;2023-04-05T14:40:00;7.68;;;5.22;;
52508;SDS011;38420;53.150;6.370;2023-04-05T14:42:26;7.85;;;5.20;;
52508;SDS011;38420;53.150;6.370;2023-04-05T14:44:51;7.03;;;4.68;;
52508;SDS011;38420;53.150;6.370;2023-04-05T14:47:17;6.85;;;4.50;;
52508;SDS011;38420;53.150;6.370;2023-04-05T14:49:42;7.15;;;4.70;;
52508;SDS011;38420;53.150;6.370;2023-04-05T14:52:08;7.18;;;5.07;;
52508;SDS011;38420;53.150;6.370;2023-04-05T14:54:34;8.43;;;5.43;;
52508;SDS011;38420;53.150;6.370;2023-04-05T14:56:59;8.40;;;4.50;;
52508;SDS011;38420;53.150;6.370;2023-04-05T14:59:25;6.97;;;4.30;;
52508;SDS011;38420;53.150;6.370;2023-04-05T15:01:51;8.23;;;4.85;;
52508;SDS011;38420;53.150;6.370;2023-04-05T15:04:17;7.60;;;4.57;;
52508;SDS011;38420;53.150;6.370;2023-04-05T15:06:42;6.50;;;4.03;;
52508;SDS011;38420;53.150;6.370;2023-04-05T15:09:08;8.95;;;4.20;;
52508;SDS011;38420;53.150;6.370;2023-04-05T15:11:35;7.07;;;4.40;;